createdAt,value
2022-12-12T00:04:51.017Z,16.67
2022-12-12T00:09:53.472Z,16.05
2022-12-12T00:14:55.965Z,15.45
2022-12-12T00:19:59.672Z,16.48
2022-12-12T00:30:05.437Z,15.02
2022-12-12T00:35:09.708Z,14.70
2022-12-12T00:40:13.522Z,15.75
2022-12-12T00:50:19.671Z,14.23
2022-12-12T00:55:22.336Z,16.58
2022-12-12T01:00:24.967Z,16.35
2022-12-12T01:05:29.173Z,15.90
2022-12-12T01:10:31.676Z,15.35
2022-12-12T01:15:34.172Z,15.50
2022-12-12T01:20:37.967Z,15.88
2022-12-12T01:25:40.415Z,15.25
2022-12-12T01:30:43.115Z,14.43
2022-12-12T01:35:46.964Z,15.00
2022-12-12T01:40:49.384Z,14.65
2022-12-12T01:46:18.868Z,16.67
2022-12-12T01:51:24.587Z,16.45
2022-12-12T01:56:27.174Z,17.73
2022-12-12T02:01:29.676Z,16.67
2022-12-12T02:06:33.512Z,17.75
2022-12-12T02:11:36.471Z,16.67
2022-12-12T02:16:56.918Z,15.93
2022-12-12T02:22:01.995Z,15.50
2022-12-12T02:27:19.459Z,15.32
2022-12-12T02:32:26.443Z,16.55
2022-12-12T02:37:32.190Z,17.30
2022-12-12T02:42:40.949Z,16.48
2022-12-12T02:47:48.196Z,15.40
2022-12-12T02:52:50.741Z,16.27
2022-12-12T02:57:54.379Z,17.20
2022-12-12T03:08:29.091Z,14.68
2022-12-12T03:13:35.629Z,15.80
2022-12-12T03:18:42.439Z,16.40
2022-12-12T03:23:48.657Z,17.48
2022-12-12T03:28:53.382Z,17.25
2022-12-12T03:33:58.056Z,16.27
2022-12-12T03:39:06.172Z,16.13
2022-12-12T03:44:11.845Z,15.93
2022-12-12T03:49:16.050Z,16.80
2022-12-12T03:54:22.155Z,17.20
2022-12-12T03:59:28.194Z,17.15
2022-12-12T04:04:35.555Z,17.65
2022-12-12T04:09:57.115Z,18.65
2022-12-12T04:15:14.222Z,17.98
2022-12-12T04:20:40.925Z,17.77
2022-12-12T04:26:03.956Z,17.73
2022-12-12T04:31:07.513Z,19.35
2022-12-12T04:36:11.417Z,20.77
2022-12-12T04:41:16.132Z,20.90
2022-12-12T04:46:21.390Z,19.17
2022-12-12T04:51:25.410Z,20.20
2022-12-12T04:56:30.791Z,19.42
2022-12-12T05:01:35.743Z,20.63
2022-12-12T05:06:40.785Z,19.40
2022-12-12T05:11:44.606Z,20.23
2022-12-12T05:16:48.503Z,20.00
2022-12-12T05:21:50.983Z,20.98
2022-12-12T05:26:54.771Z,23.75
2022-12-12T05:31:57.199Z,24.67
2022-12-12T05:37:00.803Z,25.25
2022-12-12T05:47:07.104Z,27.20
2022-12-12T05:52:09.616Z,25.33
2022-12-12T05:57:12.067Z,23.83
2022-12-12T06:02:16.276Z,23.10
2022-12-12T06:07:18.803Z,23.73
2022-12-12T06:12:21.264Z,23.40
2022-12-12T06:17:29.714Z,23.48
2022-12-12T06:22:35.923Z,23.55
2022-12-12T06:27:38.555Z,22.43
2022-12-12T06:32:42.675Z,22.67
2022-12-12T06:37:45.216Z,22.98
2022-12-12T06:42:48.667Z,22.58
2022-12-12T06:52:54.927Z,21.45
2022-12-12T06:57:57.350Z,26.45
2022-12-12T07:02:59.811Z,33.28
2022-12-12T07:08:04.341Z,26.55
2022-12-12T07:13:06.732Z,26.65
2022-12-12T07:18:09.155Z,21.10
2022-12-12T07:23:13.016Z,23.92
2022-12-12T07:28:15.709Z,22.55
2022-12-12T07:33:18.623Z,21.40
2022-12-12T07:38:22.414Z,22.30
2022-12-12T07:43:26.503Z,22.48
2022-12-12T07:48:29.690Z,21.73
2022-12-12T07:53:33.669Z,21.23
2022-12-12T07:58:36.151Z,21.63
2022-12-12T08:03:38.608Z,20.48
2022-12-12T08:08:42.572Z,22.02
2022-12-12T08:13:45.053Z,23.38
2022-12-12T08:18:48.980Z,21.70
2022-12-12T08:23:52.795Z,24.52
2022-12-12T08:28:55.662Z,23.58
2022-12-12T08:33:58.354Z,21.53
2022-12-12T08:39:05.285Z,22.83
2022-12-12T08:44:07.918Z,23.85
2022-12-12T08:49:10.833Z,23.30
2022-12-12T08:54:14.904Z,20.20
2022-12-12T08:59:17.707Z,21.65
2022-12-12T09:04:20.150Z,21.07
2022-12-12T09:09:24.939Z,20.85
2022-12-12T09:14:27.441Z,22.73
2022-12-12T09:19:29.909Z,23.75
2022-12-12T09:24:33.702Z,22.30
2022-12-12T09:29:36.200Z,22.13
2022-12-12T09:34:38.667Z,22.90
2022-12-12T09:39:43.591Z,23.70
2022-12-12T09:44:46.334Z,24.30
2022-12-12T09:49:50.001Z,25.43
2022-12-12T09:59:58.946Z,26.55
2022-12-12T10:05:02.473Z,28.30
2022-12-12T10:15:14.130Z,26.92
2022-12-12T10:20:18.177Z,26.63
2022-12-12T10:25:22.010Z,27.60
2022-12-12T10:30:25.941Z,27.30
2022-12-12T10:35:30.809Z,27.33
2022-12-12T10:40:38.740Z,27.33
2022-12-12T10:45:46.055Z,27.17
2022-12-12T10:50:50.103Z,26.45
2022-12-12T10:55:54.209Z,26.25
2022-12-12T11:01:02.344Z,23.05
2022-12-12T11:06:07.200Z,25.38
2022-12-12T11:11:19.170Z,22.77
2022-12-12T11:16:25.702Z,23.83
2022-12-12T11:21:28.951Z,22.73
2022-12-12T11:26:31.365Z,22.02
2022-12-12T11:31:36.039Z,20.65
2022-12-12T11:36:39.408Z,16.88
2022-12-12T11:41:56.668Z,17.15
2022-12-12T11:47:16.036Z,17.23
2022-12-12T11:52:19.564Z,16.63
2022-12-12T12:02:40.675Z,15.82
2022-12-12T12:07:48.352Z,14.48
2022-12-12T12:12:54.303Z,13.50
2022-12-12T12:18:03.720Z,10.55
2022-12-12T12:23:11.204Z,11.77
2022-12-12T12:28:26.292Z,13.57
2022-12-12T12:33:38.921Z,11.43
2022-12-12T12:38:49.241Z,13.02
2022-12-12T12:43:58.739Z,13.95
2022-12-12T12:49:05.789Z,13.50
2022-12-12T12:54:13.640Z,13.95
2022-12-12T12:59:18.465Z,12.30
2022-12-12T13:04:23.974Z,12.13
2022-12-12T13:09:30.989Z,12.02
2022-12-12T13:14:39.251Z,10.35
2022-12-12T13:19:45.164Z,10.98
2022-12-12T13:24:53.645Z,11.55
2022-12-12T13:30:02.581Z,11.50
2022-12-12T13:35:09.071Z,11.48
2022-12-12T13:40:23.979Z,11.38
2022-12-12T13:45:37.664Z,12.63
2022-12-12T13:50:41.441Z,12.98
2022-12-12T13:55:44.170Z,13.65
2022-12-12T14:00:46.725Z,14.10
2022-12-12T14:05:51.332Z,14.15
2022-12-12T14:10:55.562Z,15.90
2022-12-12T14:16:02.077Z,15.75
2022-12-12T14:21:07.687Z,14.88
2022-12-12T14:26:28.530Z,14.00
2022-12-12T14:31:35.281Z,13.95
2022-12-12T14:36:52.868Z,14.40
2022-12-12T14:41:57.463Z,13.48
2022-12-12T14:47:00.354Z,12.32
2022-12-12T14:52:03.086Z,13.93
2022-12-12T14:57:07.624Z,12.17
2022-12-12T15:02:17.900Z,13.38
2022-12-12T15:07:24.343Z,13.65
2022-12-12T15:12:32.890Z,12.73
2022-12-12T15:17:37.249Z,14.30
2022-12-12T15:22:49.484Z,13.68
2022-12-12T15:27:56.364Z,13.55
2022-12-12T15:33:00.190Z,13.10
2022-12-12T15:38:05.600Z,11.75
2022-12-12T15:43:14.452Z,13.50
2022-12-12T15:48:18.078Z,13.82
2022-12-12T15:58:29.510Z,13.82
2022-12-12T16:03:32.321Z,12.07
2022-12-12T16:08:37.028Z,13.80
2022-12-12T16:13:41.855Z,20.45
2022-12-12T16:18:44.433Z,17.60
2022-12-12T16:23:46.887Z,20.40
2022-12-12T16:28:50.603Z,18.40
2022-12-12T16:33:54.205Z,17.17
2022-12-12T16:44:00.181Z,15.55
2022-12-12T16:49:04.676Z,14.88
2022-12-12T16:54:07.401Z,17.13
2022-12-12T16:59:11.260Z,18.73
2022-12-12T17:04:19.199Z,17.17
2022-12-12T17:09:26.812Z,18.55
2022-12-12T17:14:33.526Z,18.65
2022-12-12T17:19:36.040Z,15.35
2022-12-12T17:24:38.451Z,16.27
2022-12-12T17:29:42.193Z,18.60
2022-12-12T17:34:44.598Z,19.65
2022-12-12T17:39:47.143Z,21.90
2022-12-12T17:44:50.920Z,22.63
2022-12-12T17:49:53.422Z,21.40
2022-12-12T17:55:54.206Z,19.00
2022-12-12T18:00:20.016Z,16.42
2022-12-12T18:05:22.527Z,17.52
2022-12-12T18:10:24.930Z,17.92
2022-12-12T18:15:28.701Z,25.40
2022-12-12T18:20:32.188Z,18.55
2022-12-12T18:25:35.879Z,18.50
2022-12-12T18:30:40.540Z,18.48
2022-12-12T18:35:44.062Z,18.60
2022-12-12T18:40:46.681Z,17.38
2022-12-12T18:45:50.694Z,17.63
2022-12-12T18:50:54.150Z,17.02
2022-12-12T18:55:56.594Z,17.73
2022-12-12T19:01:04.403Z,18.20
2022-12-12T19:06:07.286Z,15.35
2022-12-12T19:11:10.371Z,16.38
2022-12-12T19:16:15.784Z,15.35
2022-12-12T19:21:20.024Z,20.33
2022-12-12T19:26:26.043Z,23.20
2022-12-12T19:31:33.216Z,20.98
2022-12-12T19:36:36.275Z,21.35
2022-12-12T19:41:38.743Z,22.42
2022-12-12T19:46:43.642Z,22.38
2022-12-12T19:51:46.534Z,24.75
2022-12-12T19:56:49.015Z,20.35
2022-12-12T20:01:54.590Z,18.83
2022-12-12T20:06:57.064Z,19.10
2022-12-12T20:12:00.896Z,19.55
2022-12-12T20:17:04.876Z,20.00
2022-12-12T20:22:07.461Z,22.15
2022-12-12T20:27:10.796Z,20.30
2022-12-12T20:32:14.604Z,21.80
2022-12-12T20:37:20.230Z,20.60
2022-12-12T20:42:22.799Z,21.75
2022-12-12T20:47:26.600Z,24.60
2022-12-12T20:52:29.226Z,27.35
2022-12-12T20:57:31.765Z,23.70
2022-12-12T21:02:35.609Z,22.10
2022-12-12T21:07:38.306Z,21.77
2022-12-12T21:12:40.952Z,24.93
2022-12-12T21:17:48.867Z,33.37
2022-12-12T21:22:51.387Z,26.90
2022-12-12T21:27:53.918Z,23.70
2022-12-12T21:33:01.973Z,21.40
2022-12-12T21:38:04.600Z,24.42
2022-12-12T21:43:07.193Z,26.70
2022-12-12T21:48:10.954Z,24.03
2022-12-12T21:53:31.039Z,25.88
2022-12-12T21:58:34.587Z,32.58
2022-12-12T22:08:42.924Z,22.45
2022-12-12T22:13:45.469Z,26.50
2022-12-12T22:18:47.919Z,22.33
2022-12-12T22:23:52.548Z,21.10
2022-12-12T22:28:55.775Z,25.38
2022-12-12T22:33:59.660Z,37.08
2022-12-12T22:39:03.909Z,26.23
2022-12-12T22:44:07.021Z,25.02
2022-12-12T22:49:11.557Z,21.40
2022-12-12T22:54:17.384Z,22.25
2022-12-12T22:59:19.831Z,20.67
2022-12-12T23:04:22.216Z,19.13
2022-12-12T23:09:26.945Z,20.55
2022-12-12T23:14:29.285Z,20.85
2022-12-12T23:19:31.758Z,19.50
2022-12-12T23:24:35.542Z,18.58
2022-12-12T23:29:37.978Z,20.83
2022-12-12T23:34:40.395Z,19.25
2022-12-12T23:39:44.327Z,18.10
2022-12-12T23:44:50.722Z,19.88
2022-12-12T23:49:53.417Z,20.38
2022-12-12T23:54:57.222Z,18.95
2022-12-12T23:59:59.663Z,20.38
